Terminal Aerodrome Forecast
Issued by NWS

Home | Current Version | Previous Version | Text Only | Print | Product List | Glossary On
Versions: 1 2 3 4 5 6 7 8 9 10 11 12 13 14 15
000
FTUS44 KTSA 240520
TAFRVS
TAF
KRVS 240520Z 2406/2506 14004KT P6SM SCT150
      TEMPO 2410/2412 2SM BR
     FM241500 17006KT P6SM SCT040 SCT150
     FM241900 16009KT P6SM VCTS SCT050CB SCT150
     FM250100 15003KT P6SM SCT250=

USA.gov is the U.S. government's official web portal to all federal, state and local government web resources and services.